createdAt,value
2018-04-23T18:00:20.603Z,2.40
2018-04-23T18:02:49.076Z,2.47
2018-04-23T18:05:16.738Z,2.67
2018-04-23T18:07:44.458Z,2.23
2018-04-23T18:10:14.002Z,2.80
2018-04-23T18:12:41.674Z,2.37
2018-04-23T18:15:10.164Z,2.23
2018-04-23T18:17:38.621Z,1.97
2018-04-23T18:20:06.323Z,2.50
2018-04-23T18:22:34.032Z,3.13
2018-04-23T18:25:01.758Z,2.87
2018-04-23T18:27:29.554Z,2.40
2018-04-23T18:29:57.220Z,3.13
2018-04-23T18:32:24.924Z,3.17
2018-04-23T18:34:53.350Z,3.00
2018-04-23T18:37:21.060Z,3.27
2018-04-23T18:39:49.551Z,3.40
2018-04-23T18:42:18.289Z,3.07
2018-04-23T18:44:47.101Z,3.07
2018-04-23T18:47:14.807Z,3.37
2018-04-23T18:49:43.383Z,3.40
2018-04-23T18:52:11.540Z,2.70
2018-04-23T18:54:40.437Z,2.73
2018-04-23T18:57:09.864Z,3.50
2018-04-23T18:59:37.515Z,2.53
2018-04-23T19:02:05.215Z,2.47
2018-04-23T19:04:32.892Z,2.73
2018-04-23T19:07:00.608Z,2.67
2018-04-23T19:09:28.314Z,2.93
2018-04-23T19:11:56.825Z,2.90
2018-04-23T19:14:25.243Z,2.57
2018-04-23T19:16:52.951Z,3.20
2018-04-23T19:19:21.393Z,2.27
2018-04-23T19:21:49.164Z,3.00
2018-04-23T19:24:16.813Z,2.37
2018-04-23T19:26:44.515Z,2.50
2018-04-23T19:29:13.118Z,3.00
2018-04-23T19:31:41.602Z,2.57
2018-04-23T19:34:10.035Z,3.00
2018-04-23T19:36:37.722Z,3.03
2018-04-23T19:39:06.153Z,2.57
2018-04-23T19:41:33.838Z,3.23
2018-04-23T19:44:01.495Z,2.70
2018-04-23T19:46:29.187Z,3.13
2018-04-23T19:48:56.868Z,2.87
2018-04-23T19:51:25.341Z,3.10
2018-04-23T19:53:53.780Z,2.97
2018-04-23T19:56:21.487Z,3.37
2018-04-23T19:58:49.912Z,2.40
2018-04-23T20:01:17.743Z,2.77
2018-04-23T20:03:46.174Z,2.73
2018-04-23T20:06:13.853Z,3.07
2018-04-23T20:08:41.535Z,3.20
2018-04-23T20:11:09.991Z,3.30
2018-04-23T20:13:37.702Z,4.50
2018-04-23T20:16:05.376Z,3.10
2018-04-23T20:18:33.143Z,3.50
2018-04-23T20:21:00.808Z,3.73
2018-04-23T20:23:28.464Z,3.50
2018-04-23T20:25:56.163Z,3.50
2018-04-23T20:28:23.863Z,3.73
2018-04-23T20:30:52.290Z,3.27
2018-04-23T20:33:19.979Z,4.30
2018-04-23T20:35:47.718Z,4.20
2018-04-23T20:38:15.380Z,3.97
2018-04-23T20:40:43.086Z,4.07
2018-04-23T20:43:11.507Z,3.93
2018-04-23T20:45:39.196Z,3.77
2018-04-23T20:48:06.863Z,4.00
2018-04-23T20:50:34.651Z,4.63
2018-04-23T20:53:02.263Z,4.17
2018-04-23T20:55:29.921Z,4.67
2018-04-23T20:57:57.610Z,4.43
2018-04-23T21:00:25.265Z,4.60
2018-04-23T21:02:52.963Z,6.00
2018-04-23T21:05:21.382Z,5.83
2018-04-23T21:07:51.005Z,6.17
2018-04-23T21:10:18.699Z,4.60
2018-04-23T21:12:46.386Z,5.37
2018-04-23T21:15:14.066Z,4.63
2018-04-23T21:17:41.762Z,5.40
2018-04-23T21:20:09.419Z,4.53
2018-04-23T21:22:37.106Z,5.10
2018-04-23T21:25:04.790Z,5.20
2018-04-23T21:27:33.208Z,3.77
2018-04-23T21:30:00.907Z,4.97
2018-04-23T21:32:28.620Z,4.60
2018-04-23T21:34:56.345Z,4.17
2018-04-23T21:37:24.812Z,4.53
2018-04-23T21:39:52.501Z,4.73
2018-04-23T21:42:20.210Z,5.13
2018-04-23T21:44:47.877Z,5.40
2018-04-23T21:47:15.567Z,4.77
2018-04-23T21:49:43.250Z,5.23
2018-04-23T21:52:10.944Z,4.40
2018-04-23T21:54:38.603Z,4.93
2018-04-23T21:57:06.292Z,4.60
2018-04-23T21:59:33.987Z,5.53
2018-04-23T22:02:02.470Z,4.77
2018-04-23T22:04:30.130Z,5.03
2018-04-23T22:06:57.839Z,4.27
2018-04-23T22:09:25.499Z,4.50
2018-04-23T22:11:53.200Z,4.90
2018-04-23T22:14:20.867Z,5.47
2018-04-23T22:16:48.564Z,5.20
2018-04-23T22:19:17.272Z,5.30
2018-04-23T22:21:44.986Z,4.70
2018-04-23T22:24:13.443Z,5.77
2018-04-23T22:26:41.104Z,5.60
2018-04-23T22:29:08.790Z,6.10
2018-04-23T22:31:37.266Z,5.90
2018-04-23T22:34:05.704Z,6.17
2018-04-23T22:36:33.403Z,5.70
2018-04-23T22:39:01.095Z,5.43
2018-04-23T22:41:28.762Z,6.23
2018-04-23T22:43:56.451Z,5.20
2018-04-23T22:46:24.111Z,6.00
2018-04-23T22:48:51.888Z,5.43
2018-04-23T22:51:19.539Z,5.87
2018-04-23T22:53:47.231Z,6.00
2018-04-23T22:56:14.887Z,6.07
2018-04-23T22:58:42.627Z,5.33
2018-04-23T23:01:10.290Z,6.13
2018-04-23T23:03:37.976Z,5.73
2018-04-23T23:06:05.679Z,6.67
2018-04-23T23:08:34.139Z,6.07
2018-04-23T23:11:02.605Z,5.10
2018-04-23T23:13:30.285Z,6.50
2018-04-23T23:15:58.794Z,5.40
2018-04-23T23:18:26.460Z,6.17
2018-04-23T23:20:54.143Z,5.17
2018-04-23T23:23:21.795Z,5.57
2018-04-23T23:25:49.488Z,4.77
2018-04-23T23:28:17.176Z,5.10
2018-04-23T23:30:45.646Z,5.93
2018-04-23T23:33:13.363Z,6.37
2018-04-23T23:35:41.060Z,5.60
2018-04-23T23:38:08.773Z,4.83
2018-04-23T23:40:36.467Z,5.40
2018-04-23T23:43:04.130Z,5.87
2018-04-23T23:45:31.819Z,5.70
2018-04-23T23:47:59.504Z,5.03
2018-04-23T23:50:27.927Z,4.97
2018-04-23T23:52:55.624Z,5.20
2018-04-23T23:55:23.301Z,5.20
2018-04-23T23:57:51.767Z,4.83
